sensor_id;sensor_type;location;lat;lon;timestamp;P1;durP1;ratioP1;P2;durP2;ratioP2
60432;SDS011;46286;48.098;11.590;2022-08-01T00:00:08;9.10;;;6.22;;
60432;SDS011;46286;48.098;11.590;2022-08-01T00:02:54;8.75;;;6.55;;
60432;SDS011;46286;48.098;11.590;2022-08-01T00:05:20;11.20;;;6.60;;
60432;SDS011;46286;48.098;11.590;2022-08-01T00:07:45;8.50;;;6.40;;
60432;SDS011;46286;48.098;11.590;2022-08-01T00:10:11;11.35;;;6.90;;
60432;SDS011;46286;48.098;11.590;2022-08-01T00:12:39;10.45;;;6.82;;
60432;SDS011;46286;48.098;11.590;2022-08-01T00:15:05;11.88;;;6.82;;
60432;SDS011;46286;48.098;11.590;2022-08-01T00:17:32;10.50;;;6.47;;
60432;SDS011;46286;48.098;11.590;2022-08-01T00:19:58;9.30;;;6.22;;
60432;SDS011;46286;48.098;11.590;2022-08-01T00:22:23;9.63;;;6.50;;
60432;SDS011;46286;48.098;11.590;2022-08-01T00:24:49;11.05;;;6.40;;
60432;SDS011;46286;48.098;11.590;2022-08-01T00:27:15;9.07;;;6.18;;
60432;SDS011;46286;48.098;11.590;2022-08-01T00:29:40;12.25;;;6.60;;
60432;SDS011;46286;48.098;11.590;2022-08-01T00:32:06;11.50;;;6.25;;
60432;SDS011;46286;48.098;11.590;2022-08-01T00:34:32;7.38;;;5.82;;
60432;SDS011;46286;48.098;11.590;2022-08-01T00:36:57;9.32;;;6.22;;
60432;SDS011;46286;48.098;11.590;2022-08-01T00:39:23;10.38;;;6.47;;
60432;SDS011;46286;48.098;11.590;2022-08-01T00:41:48;14.05;;;6.70;;
60432;SDS011;46286;48.098;11.590;2022-08-01T00:44:14;9.93;;;7.07;;
60432;SDS011;46286;48.098;11.590;2022-08-01T00:46:41;10.85;;;6.60;;
60432;SDS011;46286;48.098;11.590;2022-08-01T00:49:06;11.38;;;6.80;;
60432;SDS011;46286;48.098;11.590;2022-08-01T00:51:32;10.68;;;6.18;;
60432;SDS011;46286;48.098;11.590;2022-08-01T00:53:58;22.23;;;6.40;;
60432;SDS011;46286;48.098;11.590;2022-08-01T00:56:25;11.93;;;6.43;;
60432;SDS011;46286;48.098;11.590;2022-08-01T00:58:53;10.98;;;6.32;;
60432;SDS011;46286;48.098;11.590;2022-08-01T01:01:19;13.13;;;7.10;;
60432;SDS011;46286;48.098;11.590;2022-08-01T01:03:50;10.27;;;6.50;;
60432;SDS011;46286;48.098;11.590;2022-08-01T01:06:25;10.60;;;6.35;;
60432;SDS011;46286;48.098;11.590;2022-08-01T01:11:44;11.85;;;6.38;;
60432;SDS011;46286;48.098;11.590;2022-08-01T01:14:37;9.18;;;6.30;;
60432;SDS011;46286;48.098;11.590;2022-08-01T01:17:11;9.63;;;6.43;;
60432;SDS011;46286;48.098;11.590;2022-08-01T01:19:45;10.50;;;6.40;;
60432;SDS011;46286;48.098;11.590;2022-08-01T01:22:21;13.25;;;6.22;;
60432;SDS011;46286;48.098;11.590;2022-08-01T01:27:45;10.60;;;6.28;;
60432;SDS011;46286;48.098;11.590;2022-08-01T01:30:16;10.98;;;5.72;;
60432;SDS011;46286;48.098;11.590;2022-08-01T01:32:43;11.57;;;6.18;;
60432;SDS011;46286;48.098;11.590;2022-08-01T01:35:32;8.85;;;5.90;;
60432;SDS011;46286;48.098;11.590;2022-08-01T01:38:05;12.57;;;6.13;;
60432;SDS011;46286;48.098;11.590;2022-08-01T01:40:39;8.88;;;5.65;;
60432;SDS011;46286;48.098;11.590;2022-08-01T01:43:08;9.57;;;6.03;;
60432;SDS011;46286;48.098;11.590;2022-08-01T01:45:35;14.77;;;7.43;;
60432;SDS011;46286;48.098;11.590;2022-08-01T01:48:01;9.48;;;6.32;;
60432;SDS011;46286;48.098;11.590;2022-08-01T01:50:28;12.18;;;6.10;;
60432;SDS011;46286;48.098;11.590;2022-08-01T01:52:55;7.63;;;5.90;;
60432;SDS011;46286;48.098;11.590;2022-08-01T01:55:22;8.13;;;5.82;;
60432;SDS011;46286;48.098;11.590;2022-08-01T01:57:50;10.23;;;6.25;;
60432;SDS011;46286;48.098;11.590;2022-08-01T02:00:17;8.40;;;5.90;;
60432;SDS011;46286;48.098;11.590;2022-08-01T02:02:43;11.73;;;6.50;;
60432;SDS011;46286;48.098;11.590;2022-08-01T02:05:11;9.65;;;6.07;;
60432;SDS011;46286;48.098;11.590;2022-08-01T02:07:39;8.52;;;6.05;;
60432;SDS011;46286;48.098;11.590;2022-08-01T02:10:06;11.00;;;6.07;;
60432;SDS011;46286;48.098;11.590;2022-08-01T02:12:35;8.02;;;5.70;;
60432;SDS011;46286;48.098;11.590;2022-08-01T02:15:03;7.45;;;5.50;;
60432;SDS011;46286;48.098;11.590;2022-08-01T02:17:30;13.77;;;5.90;;
60432;SDS011;46286;48.098;11.590;2022-08-01T02:19:56;10.38;;;6.20;;
60432;SDS011;46286;48.098;11.590;2022-08-01T02:22:40;11.45;;;6.07;;
60432;SDS011;46286;48.098;11.590;2022-08-01T02:25:15;12.10;;;6.00;;
60432;SDS011;46286;48.098;11.590;2022-08-01T02:30:35;9.13;;;5.95;;
60432;SDS011;46286;48.098;11.590;2022-08-01T02:33:08;12.27;;;6.38;;
60432;SDS011;46286;48.098;11.590;2022-08-01T02:35:41;12.52;;;5.75;;
60432;SDS011;46286;48.098;11.590;2022-08-01T02:38:09;12.38;;;6.00;;
60432;SDS011;46286;48.098;11.590;2022-08-01T02:40:37;8.40;;;5.75;;
60432;SDS011;46286;48.098;11.590;2022-08-01T02:43:06;8.57;;;5.93;;
60432;SDS011;46286;48.098;11.590;2022-08-01T02:45:34;9.55;;;6.10;;
60432;SDS011;46286;48.098;11.590;2022-08-01T02:48:05;13.35;;;6.43;;
60432;SDS011;46286;48.098;11.590;2022-08-01T02:50:35;10.73;;;5.57;;
60432;SDS011;46286;48.098;11.590;2022-08-01T02:53:01;10.77;;;6.00;;
60432;SDS011;46286;48.098;11.590;2022-08-01T02:55:28;9.55;;;5.78;;
60432;SDS011;46286;48.098;11.590;2022-08-01T02:57:57;10.10;;;6.15;;
60432;SDS011;46286;48.098;11.590;2022-08-01T03:00:25;8.50;;;5.70;;
60432;SDS011;46286;48.098;11.590;2022-08-01T03:02:52;7.63;;;5.53;;
60432;SDS011;46286;48.098;11.590;2022-08-01T03:05:22;8.70;;;5.68;;
60432;SDS011;46286;48.098;11.590;2022-08-01T03:07:50;11.50;;;5.65;;
60432;SDS011;46286;48.098;11.590;2022-08-01T03:10:18;10.20;;;6.05;;
60432;SDS011;46286;48.098;11.590;2022-08-01T03:12:44;15.02;;;6.18;;
60432;SDS011;46286;48.098;11.590;2022-08-01T03:15:11;11.73;;;5.80;;
60432;SDS011;46286;48.098;11.590;2022-08-01T03:17:39;13.13;;;5.82;;
60432;SDS011;46286;48.098;11.590;2022-08-01T03:20:08;7.90;;;5.68;;
60432;SDS011;46286;48.098;11.590;2022-08-01T03:22:37;8.88;;;5.93;;
60432;SDS011;46286;48.098;11.590;2022-08-01T03:25:04;11.65;;;5.65;;
60432;SDS011;46286;48.098;11.590;2022-08-01T03:27:31;9.50;;;6.00;;
60432;SDS011;46286;48.098;11.590;2022-08-01T03:29:58;9.27;;;6.13;;
60432;SDS011;46286;48.098;11.590;2022-08-01T03:32:27;11.63;;;5.95;;
60432;SDS011;46286;48.098;11.590;2022-08-01T03:34:55;11.63;;;5.95;;
60432;SDS011;46286;48.098;11.590;2022-08-01T03:37:33;11.13;;;5.32;;
60432;SDS011;46286;48.098;11.590;2022-08-01T03:40:11;12.13;;;5.95;;
60432;SDS011;46286;48.098;11.590;2022-08-01T03:42:47;12.20;;;6.15;;
60432;SDS011;46286;48.098;11.590;2022-08-01T03:45:15;13.32;;;5.60;;
60432;SDS011;46286;48.098;11.590;2022-08-01T03:47:46;8.38;;;5.80;;
60432;SDS011;46286;48.098;11.590;2022-08-01T03:50:13;11.63;;;6.15;;
60432;SDS011;46286;48.098;11.590;2022-08-01T03:52:42;9.38;;;5.90;;
60432;SDS011;46286;48.098;11.590;2022-08-01T03:55:10;10.77;;;6.38;;
60432;SDS011;46286;48.098;11.590;2022-08-01T03:57:37;9.80;;;6.13;;
60432;SDS011;46286;48.098;11.590;2022-08-01T04:00:05;12.25;;;5.60;;
60432;SDS011;46286;48.098;11.590;2022-08-01T04:02:33;9.18;;;6.05;;
60432;SDS011;46286;48.098;11.590;2022-08-01T04:05:00;9.38;;;5.68;;
60432;SDS011;46286;48.098;11.590;2022-08-01T04:07:28;9.60;;;6.13;;
60432;SDS011;46286;48.098;11.590;2022-08-01T04:09:55;10.15;;;5.88;;
60432;SDS011;46286;48.098;11.590;2022-08-01T04:12:21;10.35;;;5.70;;
60432;SDS011;46286;48.098;11.590;2022-08-01T04:14:48;10.80;;;5.95;;
60432;SDS011;46286;48.098;11.590;2022-08-01T04:17:14;9.10;;;6.10;;
60432;SDS011;46286;48.098;11.590;2022-08-01T04:19:40;9.93;;;5.93;;
60432;SDS011;46286;48.098;11.590;2022-08-01T04:22:06;10.55;;;5.80;;
60432;SDS011;46286;48.098;11.590;2022-08-01T04:24:34;9.88;;;5.75;;
60432;SDS011;46286;48.098;11.590;2022-08-01T04:27:01;12.50;;;5.97;;
60432;SDS011;46286;48.098;11.590;2022-08-01T04:29:31;10.80;;;6.13;;
60432;SDS011;46286;48.098;11.590;2022-08-01T04:31:57;9.48;;;6.15;;
60432;SDS011;46286;48.098;11.590;2022-08-01T04:34:25;10.93;;;6.07;;
60432;SDS011;46286;48.098;11.590;2022-08-01T04:36:54;9.90;;;6.55;;
60432;SDS011;46286;48.098;11.590;2022-08-01T04:39:20;11.20;;;5.60;;
60432;SDS011;46286;48.098;11.590;2022-08-01T04:41:52;9.57;;;5.90;;
60432;SDS011;46286;48.098;11.590;2022-08-01T04:44:22;12.80;;;5.93;;
60432;SDS011;46286;48.098;11.590;2022-08-01T04:46:48;11.38;;;6.28;;
60432;SDS011;46286;48.098;11.590;2022-08-01T04:49:15;11.55;;;5.95;;
60432;SDS011;46286;48.098;11.590;2022-08-01T04:51:54;10.63;;;5.75;;
60432;SDS011;46286;48.098;11.590;2022-08-01T04:54:25;8.77;;;5.80;;
60432;SDS011;46286;48.098;11.590;2022-08-01T04:56:52;11.63;;;5.65;;
60432;SDS011;46286;48.098;11.590;2022-08-01T04:59:20;10.98;;;6.32;;
60432;SDS011;46286;48.098;11.590;2022-08-01T05:04:32;11.85;;;6.18;;
60432;SDS011;46286;48.098;11.590;2022-08-01T05:06:57;8.80;;;5.55;;
60432;SDS011;46286;48.098;11.590;2022-08-01T05:09:23;13.25;;;6.13;;
60432;SDS011;46286;48.098;11.590;2022-08-01T05:11:48;10.55;;;5.57;;
60432;SDS011;46286;48.098;11.590;2022-08-01T05:14:14;10.75;;;5.90;;
60432;SDS011;46286;48.098;11.590;2022-08-01T05:16:39;11.38;;;5.95;;
60432;SDS011;46286;48.098;11.590;2022-08-01T05:19:05;10.85;;;5.78;;
60432;SDS011;46286;48.098;11.590;2022-08-01T05:21:30;8.18;;;5.57;;
60432;SDS011;46286;48.098;11.590;2022-08-01T05:23:56;13.25;;;5.80;;
60432;SDS011;46286;48.098;11.590;2022-08-01T05:26:22;8.20;;;5.45;;
60432;SDS011;46286;48.098;11.590;2022-08-01T05:28:48;10.95;;;5.30;;
60432;SDS011;46286;48.098;11.590;2022-08-01T05:31:14;11.43;;;5.35;;
60432;SDS011;46286;48.098;11.590;2022-08-01T05:33:39;10.30;;;5.40;;
60432;SDS011;46286;48.098;11.590;2022-08-01T05:36:04;8.90;;;5.60;;
60432;SDS011;46286;48.098;11.590;2022-08-01T05:38:30;11.35;;;5.97;;
60432;SDS011;46286;48.098;11.590;2022-08-01T05:40:55;8.07;;;5.10;;
60432;SDS011;46286;48.098;11.590;2022-08-01T05:43:21;11.32;;;5.68;;
60432;SDS011;46286;48.098;11.590;2022-08-01T05:45:46;8.85;;;5.25;;
60432;SDS011;46286;48.098;11.590;2022-08-01T05:48:12;10.90;;;6.25;;
60432;SDS011;46286;48.098;11.590;2022-08-01T05:50:38;8.60;;;5.13;;
60432;SDS011;46286;48.098;11.590;2022-08-01T05:53:03;7.55;;;4.60;;
60432;SDS011;46286;48.098;11.590;2022-08-01T05:55:29;10.20;;;4.82;;
60432;SDS011;46286;48.098;11.590;2022-08-01T05:57:54;10.00;;;5.00;;
60432;SDS011;46286;48.098;11.590;2022-08-01T06:00:20;7.03;;;4.82;;
60432;SDS011;46286;48.098;11.590;2022-08-01T06:02:46;10.07;;;4.80;;
60432;SDS011;46286;48.098;11.590;2022-08-01T06:05:11;7.80;;;4.60;;
60432;SDS011;46286;48.098;11.590;2022-08-01T06:07:37;7.93;;;5.43;;
60432;SDS011;46286;48.098;11.590;2022-08-01T06:10:04;9.88;;;4.80;;
60432;SDS011;46286;48.098;11.590;2022-08-01T06:12:32;8.20;;;4.60;;
60432;SDS011;46286;48.098;11.590;2022-08-01T06:14:58;8.77;;;4.60;;
60432;SDS011;46286;48.098;11.590;2022-08-01T06:17:23;8.57;;;4.82;;
60432;SDS011;46286;48.098;11.590;2022-08-01T06:19:49;8.60;;;4.80;;
60432;SDS011;46286;48.098;11.590;2022-08-01T06:22:14;9.18;;;4.82;;
60432;SDS011;46286;48.098;11.590;2022-08-01T06:24:40;9.57;;;4.80;;
60432;SDS011;46286;48.098;11.590;2022-08-01T06:27:05;10.20;;;5.70;;
60432;SDS011;46286;48.098;11.590;2022-08-01T06:29:31;9.65;;;4.75;;
60432;SDS011;46286;48.098;11.590;2022-08-01T06:31:57;7.95;;;4.75;;
60432;SDS011;46286;48.098;11.590;2022-08-01T06:34:23;7.05;;;4.78;;
60432;SDS011;46286;48.098;11.590;2022-08-01T06:36:48;7.65;;;4.68;;
60432;SDS011;46286;48.098;11.590;2022-08-01T06:39:14;7.63;;;5.00;;
60432;SDS011;46286;48.098;11.590;2022-08-01T06:41:39;7.53;;;4.80;;
60432;SDS011;46286;48.098;11.590;2022-08-01T06:44:07;10.20;;;4.70;;
60432;SDS011;46286;48.098;11.590;2022-08-01T06:46:32;8.02;;;4.97;;
60432;SDS011;46286;48.098;11.590;2022-08-01T06:48:59;10.27;;;5.15;;
60432;SDS011;46286;48.098;11.590;2022-08-01T06:51:24;8.23;;;4.70;;
60432;SDS011;46286;48.098;11.590;2022-08-01T06:53:50;9.13;;;5.05;;
60432;SDS011;46286;48.098;11.590;2022-08-01T06:56:15;6.78;;;4.53;;
60432;SDS011;46286;48.098;11.590;2022-08-01T06:58:41;9.13;;;4.63;;
60432;SDS011;46286;48.098;11.590;2022-08-01T07:01:06;7.82;;;4.40;;
60432;SDS011;46286;48.098;11.590;2022-08-01T07:03:33;8.80;;;5.05;;
60432;SDS011;46286;48.098;11.590;2022-08-01T07:05:59;9.68;;;5.40;;
60432;SDS011;46286;48.098;11.590;2022-08-01T07:08:24;8.23;;;5.43;;
60432;SDS011;46286;48.098;11.590;2022-08-01T07:10:50;8.30;;;4.75;;
60432;SDS011;46286;48.098;11.590;2022-08-01T07:13:15;7.88;;;4.80;;
60432;SDS011;46286;48.098;11.590;2022-08-01T07:15:45;10.80;;;4.55;;
60432;SDS011;46286;48.098;11.590;2022-08-01T07:18:11;7.20;;;4.85;;
60432;SDS011;46286;48.098;11.590;2022-08-01T07:20:37;8.57;;;5.38;;
60432;SDS011;46286;48.098;11.590;2022-08-01T07:23:03;14.15;;;5.70;;
60432;SDS011;46286;48.098;11.590;2022-08-01T07:25:29;7.45;;;4.85;;
60432;SDS011;46286;48.098;11.590;2022-08-01T07:27:54;10.02;;;5.53;;
60432;SDS011;46286;48.098;11.590;2022-08-01T07:30:20;11.43;;;4.90;;
60432;SDS011;46286;48.098;11.590;2022-08-01T07:32:45;7.32;;;5.00;;
60432;SDS011;46286;48.098;11.590;2022-08-01T07:35:11;11.57;;;5.00;;
60432;SDS011;46286;48.098;11.590;2022-08-01T07:37:36;8.80;;;5.60;;
60432;SDS011;46286;48.098;11.590;2022-08-01T07:40:02;8.35;;;5.25;;
60432;SDS011;46286;48.098;11.590;2022-08-01T07:42:30;15.75;;;5.53;;
60432;SDS011;46286;48.098;11.590;2022-08-01T07:44:56;9.93;;;5.22;;
60432;SDS011;46286;48.098;11.590;2022-08-01T07:47:24;10.20;;;5.43;;
60432;SDS011;46286;48.098;11.590;2022-08-01T07:49:51;7.97;;;5.30;;
60432;SDS011;46286;48.098;11.590;2022-08-01T07:52:17;8.27;;;5.10;;
60432;SDS011;46286;48.098;11.590;2022-08-01T07:54:42;10.60;;;5.15;;
60432;SDS011;46286;48.098;11.590;2022-08-01T07:57:08;10.15;;;5.20;;
60432;SDS011;46286;48.098;11.590;2022-08-01T07:59:33;8.27;;;5.40;;
60432;SDS011;46286;48.098;11.590;2022-08-01T08:01:59;7.38;;;5.05;;
60432;SDS011;46286;48.098;11.590;2022-08-01T08:04:25;17.10;;;6.07;;
60432;SDS011;46286;48.098;11.590;2022-08-01T08:06:51;8.65;;;4.82;;
60432;SDS011;46286;48.098;11.590;2022-08-01T08:09:18;9.07;;;4.70;;
60432;SDS011;46286;48.098;11.590;2022-08-01T08:11:44;7.97;;;5.03;;
60432;SDS011;46286;48.098;11.590;2022-08-01T08:14:10;9.32;;;5.50;;
60432;SDS011;46286;48.098;11.590;2022-08-01T08:16:36;15.75;;;5.10;;
60432;SDS011;46286;48.098;11.590;2022-08-01T08:19:02;9.40;;;5.15;;
60432;SDS011;46286;48.098;11.590;2022-08-01T08:21:28;10.52;;;5.32;;
60432;SDS011;46286;48.098;11.590;2022-08-01T08:23:55;9.38;;;5.38;;
60432;SDS011;46286;48.098;11.590;2022-08-01T08:26:39;9.07;;;5.03;;
60432;SDS011;46286;48.098;11.590;2022-08-01T08:29:04;9.98;;;5.18;;
60432;SDS011;46286;48.098;11.590;2022-08-01T08:31:30;8.25;;;5.10;;
60432;SDS011;46286;48.098;11.590;2022-08-01T08:33:55;8.65;;;5.38;;
60432;SDS011;46286;48.098;11.590;2022-08-01T08:36:21;7.45;;;5.10;;
60432;SDS011;46286;48.098;11.590;2022-08-01T08:38:46;7.35;;;4.63;;
60432;SDS011;46286;48.098;11.590;2022-08-01T08:41:12;9.80;;;5.00;;
60432;SDS011;46286;48.098;11.590;2022-08-01T08:43:38;9.00;;;5.13;;
60432;SDS011;46286;48.098;11.590;2022-08-01T08:46:03;10.45;;;4.65;;
60432;SDS011;46286;48.098;11.590;2022-08-01T08:48:33;8.15;;;5.22;;
60432;SDS011;46286;48.098;11.590;2022-08-01T08:51:00;8.80;;;4.63;;
60432;SDS011;46286;48.098;11.590;2022-08-01T08:53:26;8.73;;;4.70;;
60432;SDS011;46286;48.098;11.590;2022-08-01T08:55:52;9.00;;;5.05;;
60432;SDS011;46286;48.098;11.590;2022-08-01T08:58:20;7.78;;;4.72;;
60432;SDS011;46286;48.098;11.590;2022-08-01T09:00:47;10.75;;;4.95;;
60432;SDS011;46286;48.098;11.590;2022-08-01T09:03:13;10.20;;;5.13;;
60432;SDS011;46286;48.098;11.590;2022-08-01T09:05:38;6.85;;;4.80;;
60432;SDS011;46286;48.098;11.590;2022-08-01T09:08:07;7.43;;;4.50;;
60432;SDS011;46286;48.098;11.590;2022-08-01T09:10:33;7.53;;;4.80;;
60432;SDS011;46286;48.098;11.590;2022-08-01T09:13:06;7.35;;;4.35;;
60432;SDS011;46286;48.098;11.590;2022-08-01T09:15:45;8.02;;;4.70;;
60432;SDS011;46286;48.098;11.590;2022-08-01T09:21:07;8.20;;;4.70;;
60432;SDS011;46286;48.098;11.590;2022-08-01T09:23:36;8.93;;;4.68;;
60432;SDS011;46286;48.098;11.590;2022-08-01T09:26:05;8.98;;;5.15;;
60432;SDS011;46286;48.098;11.590;2022-08-01T09:28:32;7.82;;;4.70;;
60432;SDS011;46286;48.098;11.590;2022-08-01T09:30:58;8.70;;;4.80;;
60432;SDS011;46286;48.098;11.590;2022-08-01T09:33:23;10.05;;;4.28;;
60432;SDS011;46286;48.098;11.590;2022-08-01T09:35:56;7.78;;;4.18;;
60432;SDS011;46286;48.098;11.590;2022-08-01T09:38:23;10.35;;;4.20;;
60432;SDS011;46286;48.098;11.590;2022-08-01T09:40:52;8.15;;;4.32;;
60432;SDS011;46286;48.098;11.590;2022-08-01T09:43:23;7.55;;;4.35;;
60432;SDS011;46286;48.098;11.590;2022-08-01T09:45:50;7.63;;;3.83;;
60432;SDS011;46286;48.098;11.590;2022-08-01T09:48:16;7.57;;;4.13;;
60432;SDS011;46286;48.098;11.590;2022-08-01T09:50:43;7.53;;;4.10;;
60432;SDS011;46286;48.098;11.590;2022-08-01T09:53:13;6.18;;;3.75;;
60432;SDS011;46286;48.098;11.590;2022-08-01T09:55:40;7.32;;;3.78;;
60432;SDS011;46286;48.098;11.590;2022-08-01T09:58:06;5.90;;;3.63;;
60432;SDS011;46286;48.098;11.590;2022-08-01T10:00:32;7.97;;;4.22;;
60432;SDS011;46286;48.098;11.590;2022-08-01T10:03:00;6.32;;;3.72;;
60432;SDS011;46286;48.098;11.590;2022-08-01T10:05:43;5.55;;;4.00;;
60432;SDS011;46286;48.098;11.590;2022-08-01T10:08:09;9.57;;;3.80;;
60432;SDS011;46286;48.098;11.590;2022-08-01T10:10:35;9.27;;;3.80;;
60432;SDS011;46286;48.098;11.590;2022-08-01T10:13:01;6.97;;;3.92;;
60432;SDS011;46286;48.098;11.590;2022-08-01T10:15:27;6.63;;;3.80;;
60432;SDS011;46286;48.098;11.590;2022-08-01T10:17:54;10.93;;;3.70;;
60432;SDS011;46286;48.098;11.590;2022-08-01T10:20:23;5.95;;;3.63;;
60432;SDS011;46286;48.098;11.590;2022-08-01T10:22:51;6.25;;;3.75;;
60432;SDS011;46286;48.098;11.590;2022-08-01T10:25:19;8.10;;;3.97;;
60432;SDS011;46286;48.098;11.590;2022-08-01T10:27:45;6.47;;;3.90;;
60432;SDS011;46286;48.098;11.590;2022-08-01T10:30:14;6.55;;;3.38;;
60432;SDS011;46286;48.098;11.590;2022-08-01T10:32:41;7.72;;;3.75;;
60432;SDS011;46286;48.098;11.590;2022-08-01T10:35:08;5.43;;;3.50;;
60432;SDS011;46286;48.098;11.590;2022-08-01T10:37:39;5.32;;;3.60;;
60432;SDS011;46286;48.098;11.590;2022-08-01T10:40:05;6.70;;;3.55;;
60432;SDS011;46286;48.098;11.590;2022-08-01T10:42:32;7.57;;;4.00;;
60432;SDS011;46286;48.098;11.590;2022-08-01T10:44:58;8.10;;;3.85;;
60432;SDS011;46286;48.098;11.590;2022-08-01T10:47:25;6.68;;;3.38;;
60432;SDS011;46286;48.098;11.590;2022-08-01T10:50:03;5.47;;;3.60;;
60432;SDS011;46286;48.098;11.590;2022-08-01T10:52:36;9.15;;;3.80;;
60432;SDS011;46286;48.098;11.590;2022-08-01T10:55:06;6.22;;;3.15;;
60432;SDS011;46286;48.098;11.590;2022-08-01T10:57:46;6.38;;;3.17;;
60432;SDS011;46286;48.098;11.590;2022-08-01T11:00:20;4.68;;;2.83;;
60432;SDS011;46286;48.098;11.590;2022-08-01T11:02:57;6.30;;;3.08;;
60432;SDS011;46286;48.098;11.590;2022-08-01T11:05:25;6.30;;;3.53;;
60432;SDS011;46286;48.098;11.590;2022-08-01T11:07:55;4.97;;;3.50;;
60432;SDS011;46286;48.098;11.590;2022-08-01T11:10:24;5.88;;;3.10;;
60432;SDS011;46286;48.098;11.590;2022-08-01T11:12:59;7.85;;;3.22;;
60432;SDS011;46286;48.098;11.590;2022-08-01T11:15:28;6.45;;;3.40;;
60432;SDS011;46286;48.098;11.590;2022-08-01T11:17:54;5.72;;;3.25;;
60432;SDS011;46286;48.098;11.590;2022-08-01T11:20:21;3.60;;;2.83;;
60432;SDS011;46286;48.098;11.590;2022-08-01T11:25:27;4.93;;;2.83;;
60432;SDS011;46286;48.098;11.590;2022-08-01T11:31:25;4.97;;;3.17;;
60432;SDS011;46286;48.098;11.590;2022-08-01T11:41:28;7.95;;;3.15;;
60432;SDS011;46286;48.098;11.590;2022-08-01T11:43:59;4.40;;;3.03;;
60432;SDS011;46286;48.098;11.590;2022-08-01T11:52:13;5.25;;;2.95;;
60432;SDS011;46286;48.098;11.590;2022-08-01T11:54:47;5.68;;;3.40;;
60432;SDS011;46286;48.098;11.590;2022-08-01T11:57:19;6.38;;;3.20;;
60432;SDS011;46286;48.098;11.590;2022-08-01T11:59:56;13.80;;;4.72;;
60432;SDS011;46286;48.098;11.590;2022-08-01T12:02:24;6.40;;;3.28;;
60432;SDS011;46286;48.098;11.590;2022-08-01T12:04:56;7.03;;;3.10;;
60432;SDS011;46286;48.098;11.590;2022-08-01T12:07:30;5.80;;;3.13;;
60432;SDS011;46286;48.098;11.590;2022-08-01T12:10:10;5.88;;;3.00;;
60432;SDS011;46286;48.098;11.590;2022-08-01T12:12:44;5.40;;;3.53;;
60432;SDS011;46286;48.098;11.590;2022-08-01T12:15:11;4.40;;;2.80;;
60432;SDS011;46286;48.098;11.590;2022-08-01T12:17:42;5.63;;;3.13;;
60432;SDS011;46286;48.098;11.590;2022-08-01T12:20:16;7.30;;;3.25;;
60432;SDS011;46286;48.098;11.590;2022-08-01T12:22:44;4.25;;;2.80;;
60432;SDS011;46286;48.098;11.590;2022-08-01T12:25:11;5.95;;;2.97;;
60432;SDS011;46286;48.098;11.590;2022-08-01T12:27:40;3.95;;;2.50;;
60432;SDS011;46286;48.098;11.590;2022-08-01T12:30:07;3.50;;;2.72;;
60432;SDS011;46286;48.098;11.590;2022-08-01T12:32:35;5.68;;;2.80;;
60432;SDS011;46286;48.098;11.590;2022-08-01T12:35:06;4.35;;;3.10;;
60432;SDS011;46286;48.098;11.590;2022-08-01T12:37:34;7.47;;;3.08;;
60432;SDS011;46286;48.098;11.590;2022-08-01T12:40:02;5.57;;;3.20;;
60432;SDS011;46286;48.098;11.590;2022-08-01T12:42:40;5.50;;;2.85;;
60432;SDS011;46286;48.098;11.590;2022-08-01T12:45:10;3.60;;;2.60;;
60432;SDS011;46286;48.098;11.590;2022-08-01T12:47:39;5.38;;;2.83;;
60432;SDS011;46286;48.098;11.590;2022-08-01T12:50:05;7.10;;;3.10;;
60432;SDS011;46286;48.098;11.590;2022-08-01T12:52:33;6.15;;;2.80;;
60432;SDS011;46286;48.098;11.590;2022-08-01T12:55:03;7.00;;;2.70;;
60432;SDS011;46286;48.098;11.590;2022-08-01T12:57:31;10.88;;;3.03;;
60432;SDS011;46286;48.098;11.590;2022-08-01T13:03:01;3.83;;;2.75;;
60432;SDS011;46286;48.098;11.590;2022-08-01T13:05:42;4.45;;;2.65;;
60432;SDS011;46286;48.098;11.590;2022-08-01T13:08:12;4.13;;;2.60;;
60432;SDS011;46286;48.098;11.590;2022-08-01T13:10:40;5.03;;;2.70;;
60432;SDS011;46286;48.098;11.590;2022-08-01T13:13:06;6.05;;;2.92;;
60432;SDS011;46286;48.098;11.590;2022-08-01T13:15:33;5.95;;;2.75;;
60432;SDS011;46286;48.098;11.590;2022-08-01T13:18:01;5.28;;;2.70;;
60432;SDS011;46286;48.098;11.590;2022-08-01T13:20:46;7.40;;;2.85;;
60432;SDS011;46286;48.098;11.590;2022-08-01T13:28:33;5.28;;;2.90;;
60432;SDS011;46286;48.098;11.590;2022-08-01T13:31:06;9.27;;;2.90;;
60432;SDS011;46286;48.098;11.590;2022-08-01T13:33:45;5.88;;;2.60;;
60432;SDS011;46286;48.098;11.590;2022-08-01T13:36:12;6.05;;;2.92;;
60432;SDS011;46286;48.098;11.590;2022-08-01T13:38:39;8.48;;;3.42;;
60432;SDS011;46286;48.098;11.590;2022-08-01T13:41:24;10.38;;;2.90;;
60432;SDS011;46286;48.098;11.590;2022-08-01T13:43:50;8.32;;;3.17;;
60432;SDS011;46286;48.098;11.590;2022-08-01T13:46:15;9.20;;;3.13;;
60432;SDS011;46286;48.098;11.590;2022-08-01T13:48:41;4.10;;;2.90;;
60432;SDS011;46286;48.098;11.590;2022-08-01T13:51:07;6.70;;;3.03;;
60432;SDS011;46286;48.098;11.590;2022-08-01T13:53:33;8.25;;;3.22;;
60432;SDS011;46286;48.098;11.590;2022-08-01T13:55:58;8.85;;;3.20;;
60432;SDS011;46286;48.098;11.590;2022-08-01T13:58:24;6.35;;;2.83;;
60432;SDS011;46286;48.098;11.590;2022-08-01T14:00:49;4.57;;;2.72;;
60432;SDS011;46286;48.098;11.590;2022-08-01T14:03:15;5.53;;;2.70;;
60432;SDS011;46286;48.098;11.590;2022-08-01T14:05:42;7.50;;;3.55;;
60432;SDS011;46286;48.098;11.590;2022-08-01T14:08:08;4.32;;;2.60;;
60432;SDS011;46286;48.098;11.590;2022-08-01T14:10:34;4.18;;;2.80;;
60432;SDS011;46286;48.098;11.590;2022-08-01T14:12:59;3.78;;;2.50;;
60432;SDS011;46286;48.098;11.590;2022-08-01T14:15:25;5.20;;;3.03;;
60432;SDS011;46286;48.098;11.590;2022-08-01T14:17:51;6.80;;;3.42;;
60432;SDS011;46286;48.098;11.590;2022-08-01T14:20:17;7.25;;;3.17;;
60432;SDS011;46286;48.098;11.590;2022-08-01T14:22:47;7.40;;;3.00;;
60432;SDS011;46286;48.098;11.590;2022-08-01T14:25:13;5.13;;;3.40;;
60432;SDS011;46286;48.098;11.590;2022-08-01T14:27:38;10.13;;;3.60;;
60432;SDS011;46286;48.098;11.590;2022-08-01T14:30:06;6.53;;;3.17;;
60432;SDS011;46286;48.098;11.590;2022-08-01T14:32:33;8.90;;;3.03;;
60432;SDS011;46286;48.098;11.590;2022-08-01T14:35:02;4.63;;;2.55;;
60432;SDS011;46286;48.098;11.590;2022-08-01T14:37:28;5.57;;;2.90;;
60432;SDS011;46286;48.098;11.590;2022-08-01T14:39:57;4.47;;;2.97;;
60432;SDS011;46286;48.098;11.590;2022-08-01T14:42:23;11.73;;;3.30;;
60432;SDS011;46286;48.098;11.590;2022-08-01T14:44:49;8.13;;;2.95;;
60432;SDS011;46286;48.098;11.590;2022-08-01T14:47:15;10.73;;;3.20;;
60432;SDS011;46286;48.098;11.590;2022-08-01T14:49:40;5.07;;;3.10;;
60432;SDS011;46286;48.098;11.590;2022-08-01T14:52:06;5.30;;;3.55;;
60432;SDS011;46286;48.098;11.590;2022-08-01T14:54:31;6.10;;;3.40;;
60432;SDS011;46286;48.098;11.590;2022-08-01T14:56:57;8.38;;;3.70;;
60432;SDS011;46286;48.098;11.590;2022-08-01T14:59:22;6.93;;;4.07;;
60432;SDS011;46286;48.098;11.590;2022-08-01T15:01:48;8.45;;;3.45;;
60432;SDS011;46286;48.098;11.590;2022-08-01T15:04:13;9.85;;;3.75;;
60432;SDS011;46286;48.098;11.590;2022-08-01T15:06:39;8.07;;;3.65;;
60432;SDS011;46286;48.098;11.590;2022-08-01T15:09:04;6.10;;;3.42;;
60432;SDS011;46286;48.098;11.590;2022-08-01T15:11:30;7.05;;;3.45;;
60432;SDS011;46286;48.098;11.590;2022-08-01T15:13:55;7.15;;;3.58;;
60432;SDS011;46286;48.098;11.590;2022-08-01T15:16:39;8.07;;;3.40;;